createdAt,value
2018-04-28T00:00:58.093Z,12.00
2018-04-28T00:03:25.921Z,11.80
2018-04-28T00:05:54.139Z,11.80
2018-04-28T00:08:42.248Z,11.80
2018-04-28T00:11:10.088Z,11.90
2018-04-28T00:13:37.925Z,12.00
2018-04-28T00:16:07.553Z,12.20
2018-04-28T00:21:37.097Z,12.40
2018-04-28T00:24:04.547Z,12.40
2018-04-28T00:26:35.440Z,12.60
2018-04-28T00:29:08.272Z,12.60
2018-04-28T00:31:39.919Z,12.60
2018-04-28T00:34:07.928Z,12.50
2018-04-28T00:37:03.697Z,12.40
2018-04-28T00:39:33.035Z,12.40
2018-04-28T00:42:01.602Z,12.70
2018-04-28T00:44:30.570Z,12.70
2018-04-28T00:47:04.337Z,12.80
2018-04-28T00:49:32.700Z,12.70
2018-04-28T00:52:00.158Z,12.60
2018-04-28T00:54:33.709Z,12.80
2018-04-28T00:57:05.899Z,12.80
2018-04-28T00:59:36.165Z,12.70
2018-04-28T01:02:12.967Z,12.70
2018-04-28T01:04:44.637Z,12.70
2018-04-28T01:07:12.081Z,12.80
2018-04-28T01:09:39.909Z,12.70
2018-04-28T01:12:07.374Z,12.30
2018-04-28T01:14:40.824Z,12.10
2018-04-28T01:17:08.260Z,11.90
2018-04-28T01:22:56.156Z,11.50
2018-04-28T01:25:24.173Z,11.40
2018-04-28T01:27:53.137Z,11.30
2018-04-28T01:30:23.109Z,11.20
2018-04-28T01:33:02.900Z,11.20
2018-04-28T01:35:31.833Z,11.30
2018-04-28T01:41:38.785Z,11.70
2018-04-28T01:44:09.960Z,11.50
2018-04-28T01:46:42.030Z,11.40
2018-04-28T01:49:11.738Z,11.30
2018-04-28T01:51:43.188Z,11.10
2018-04-28T01:57:13.962Z,11.30
2018-04-28T01:59:45.700Z,11.30
2018-04-28T02:02:13.542Z,11.30
2018-04-28T02:05:16.062Z,11.10
2018-04-28T02:07:45.466Z,10.90
2018-04-28T02:10:12.888Z,10.70
2018-04-28T02:15:53.390Z,11.00
2018-04-28T02:21:28.902Z,10.90
2018-04-28T02:24:09.252Z,10.80
2018-04-28T02:26:44.384Z,10.60
2018-04-28T02:29:17.984Z,10.60
2018-04-28T02:32:02.047Z,10.70
2018-04-28T02:34:31.475Z,10.70
2018-04-28T02:40:16.760Z,10.60
2018-04-28T02:42:45.681Z,10.40
2018-04-28T02:45:20.684Z,10.40
2018-04-28T02:48:07.520Z,10.20
2018-04-28T02:50:36.833Z,10.10
2018-04-28T02:56:14.589Z,10.20
2018-04-28T02:58:52.684Z,10.00
2018-04-28T03:01:30.264Z,9.90
2018-04-28T03:03:58.479Z,9.90
2018-04-28T03:06:35.340Z,10.00
2018-04-28T03:09:03.528Z,9.90
2018-04-28T03:11:32.525Z,10.00
2018-04-28T03:13:59.978Z,9.80
2018-04-28T03:16:31.033Z,9.80
2018-04-28T03:22:00.544Z,9.50
2018-04-28T03:30:57.633Z,9.60
2018-04-28T03:33:29.573Z,9.60
2018-04-28T03:35:57.009Z,9.60
2018-04-28T03:38:50.336Z,9.70
2018-04-28T03:41:32.649Z,10.10
2018-04-28T03:44:09.402Z,10.20
2018-04-28T03:46:37.780Z,10.60
2018-04-28T03:52:21.503Z,10.70
2018-04-28T03:54:57.152Z,10.60
2018-04-28T03:57:36.373Z,10.70
2018-04-28T04:00:15.703Z,10.50
2018-04-28T04:02:55.960Z,10.70
2018-04-28T04:08:36.776Z,10.50
2018-04-28T04:14:14.277Z,10.30
2018-04-28T04:16:50.441Z,10.10
2018-04-28T04:19:22.912Z,10.10
2018-04-28T04:21:57.257Z,10.10
2018-04-28T04:24:26.380Z,10.10
2018-04-28T04:27:02.448Z,10.10
2018-04-28T04:29:42.209Z,10.00
2018-04-28T04:32:13.604Z,10.00
2018-04-28T04:34:57.884Z,10.10
2018-04-28T04:37:42.003Z,10.10
2018-04-28T04:40:17.007Z,10.20
2018-04-28T04:42:55.324Z,10.40
2018-04-28T04:48:53.741Z,10.70
2018-04-28T04:51:41.884Z,10.70
2018-04-28T04:54:13.909Z,10.70
2018-04-28T04:56:50.429Z,10.80
2018-04-28T04:59:30.193Z,10.90
2018-04-28T05:02:07.403Z,11.00
2018-04-28T05:04:42.953Z,11.00
2018-04-28T05:10:36.952Z,11.30
2018-04-28T05:13:22.893Z,11.30
2018-04-28T05:19:17.839Z,11.50
2018-04-28T05:21:48.531Z,11.50
2018-04-28T05:24:23.896Z,11.60
2018-04-28T05:26:55.853Z,11.70
2018-04-28T05:32:43.333Z,11.90
2018-04-28T05:38:37.453Z,11.80
2018-04-28T05:41:17.566Z,11.90
2018-04-28T05:43:56.793Z,11.90
2018-04-28T05:46:30.251Z,12.00
2018-04-28T05:49:06.583Z,12.30
2018-04-28T05:54:56.960Z,12.50
2018-04-28T05:57:34.101Z,12.50
2018-04-28T06:00:22.331Z,12.40
2018-04-28T06:02:52.273Z,12.50
2018-04-28T06:05:30.353Z,12.50
2018-04-28T06:11:16.813Z,12.20
2018-04-28T06:14:06.642Z,12.20
2018-04-28T06:16:51.416Z,12.20
2018-04-28T06:19:41.581Z,12.40
2018-04-28T06:22:09.022Z,12.60
2018-04-28T06:24:36.456Z,12.50
2018-04-28T06:27:04.673Z,12.50
2018-04-28T06:29:32.108Z,12.60
2018-04-28T06:31:59.550Z,12.70
2018-04-28T06:34:26.985Z,12.70
2018-04-28T06:36:57.924Z,12.70
2018-04-28T06:39:25.380Z,12.60
2018-04-28T06:41:52.804Z,12.60
2018-04-28T06:44:20.633Z,12.60
2018-04-28T06:46:48.072Z,12.50
2018-04-28T06:49:15.518Z,12.60
2018-04-28T06:51:42.968Z,12.60
2018-04-28T06:54:10.403Z,12.70
2018-04-28T06:56:38.624Z,12.60
2018-04-28T06:59:06.053Z,12.70
2018-04-28T07:01:33.525Z,12.90
2018-04-28T07:04:01.385Z,12.90
2018-04-28T07:06:29.589Z,13.00
2018-04-28T07:08:57.809Z,13.00
2018-04-28T07:11:25.245Z,13.20
2018-04-28T07:13:52.684Z,13.10
2018-04-28T07:16:20.154Z,13.50
2018-04-28T07:18:47.595Z,13.60
2018-04-28T07:21:15.025Z,13.50
2018-04-28T07:23:42.461Z,13.60
2018-04-28T07:26:10.669Z,13.40
2018-04-28T07:28:38.110Z,13.60
2018-04-28T07:31:06.323Z,13.80
2018-04-28T07:33:33.766Z,14.10
2018-04-28T07:36:01.596Z,14.20
2018-04-28T07:38:29.034Z,14.00
2018-04-28T07:40:56.873Z,14.20
2018-04-28T07:43:24.313Z,14.50
2018-04-28T07:45:51.753Z,14.40
2018-04-28T07:48:19.992Z,14.50
2018-04-28T07:50:48.228Z,14.50
2018-04-28T07:53:15.660Z,14.50
2018-04-28T07:55:43.100Z,14.70
2018-04-28T07:58:10.535Z,14.80
2018-04-28T08:00:37.969Z,14.50
2018-04-28T08:03:06.177Z,14.80
2018-04-28T08:05:33.626Z,14.50
2018-04-28T08:08:01.057Z,15.00
2018-04-28T08:10:28.498Z,15.20
2018-04-28T08:12:55.936Z,15.70
2018-04-28T08:15:23.385Z,16.10
2018-04-28T08:17:51.233Z,16.40
2018-04-28T08:20:18.688Z,16.00
2018-04-28T08:22:46.132Z,16.10
2018-04-28T08:25:14.364Z,17.10
2018-04-28T08:27:41.816Z,17.70
2018-04-28T08:30:09.256Z,17.70
2018-04-28T08:32:36.690Z,17.80
2018-04-28T08:35:04.522Z,17.20
2018-04-28T08:37:32.356Z,16.80
2018-04-28T08:40:00.643Z,16.60
2018-04-28T08:42:28.082Z,16.80
2018-04-28T08:44:55.525Z,17.20
2018-04-28T08:47:22.967Z,17.20
2018-04-28T08:49:50.403Z,16.80
2018-04-28T08:52:18.629Z,16.30
2018-04-28T08:54:46.090Z,16.60
2018-04-28T08:57:13.935Z,16.50
2018-04-28T08:59:53.957Z,16.50
2018-04-28T09:02:21.389Z,16.30
2018-04-28T09:04:48.827Z,16.20
2018-04-28T09:07:43.767Z,16.10
2018-04-28T09:10:11.213Z,15.90
2018-04-28T09:12:39.414Z,17.00
2018-04-28T09:15:06.848Z,17.50
2018-04-28T09:17:35.065Z,18.50
2018-04-28T09:20:02.527Z,18.60
2018-04-28T09:22:30.341Z,18.30
2018-04-28T09:24:57.800Z,17.70
2018-04-28T09:27:25.265Z,17.20
2018-04-28T09:29:52.705Z,17.40
2018-04-28T09:32:20.142Z,17.40
2018-04-28T09:34:48.370Z,17.30
2018-04-28T09:37:15.806Z,17.70
2018-04-28T09:39:43.238Z,17.80
2018-04-28T09:42:10.677Z,17.40
2018-04-28T09:44:38.108Z,17.20
2018-04-28T09:47:05.553Z,17.30
2018-04-28T09:49:32.993Z,17.20
2018-04-28T09:52:00.421Z,17.20
2018-04-28T09:54:28.624Z,17.20
2018-04-28T09:56:56.832Z,16.80
2018-04-28T09:59:25.029Z,16.40
2018-04-28T10:01:58.498Z,16.40
2018-04-28T10:04:26.698Z,16.90
2018-04-28T10:06:54.128Z,16.90
2018-04-28T10:09:21.567Z,16.70
2018-04-28T10:11:49.409Z,16.50
2018-04-28T10:14:16.842Z,16.90
2018-04-28T10:16:44.273Z,17.40
2018-04-28T10:19:11.717Z,17.40
2018-04-28T10:21:39.155Z,17.20
2018-04-28T10:24:06.979Z,17.10
2018-04-28T10:26:34.430Z,17.30
2018-04-28T10:29:01.862Z,17.50
2018-04-28T10:31:30.072Z,18.50
2018-04-28T10:33:57.500Z,18.60
2018-04-28T10:36:25.335Z,18.80
2018-04-28T10:38:52.847Z,18.10
2018-04-28T10:41:20.225Z,18.60
2018-04-28T10:43:48.441Z,18.10
2018-04-28T10:46:16.288Z,19.10
2018-04-28T10:48:43.731Z,20.50
2018-04-28T10:51:11.260Z,20.00
2018-04-28T10:53:39.527Z,19.60
2018-04-28T10:56:06.880Z,19.40
2018-04-28T10:58:35.123Z,19.80
2018-04-28T11:01:02.566Z,20.70
2018-04-28T11:03:29.999Z,19.60
2018-04-28T11:05:58.209Z,20.60
2018-04-28T11:08:25.649Z,21.10
2018-04-28T11:10:53.101Z,21.20
2018-04-28T11:13:20.622Z,20.30
2018-04-28T11:15:48.384Z,20.20
2018-04-28T11:18:16.593Z,21.40
2018-04-28T11:20:44.415Z,21.00
2018-04-28T11:23:11.848Z,19.90
2018-04-28T11:25:39.395Z,20.20
2018-04-28T11:28:06.751Z,20.00
2018-04-28T11:30:34.199Z,19.50
2018-04-28T11:35:36.233Z,19.60
2018-04-28T11:38:03.669Z,19.00
2018-04-28T11:40:31.104Z,18.20
2018-04-28T11:42:58.540Z,18.50
2018-04-28T11:45:25.987Z,18.70
2018-04-28T11:47:54.180Z,18.70
2018-04-28T11:50:21.736Z,18.90
2018-04-28T11:52:49.944Z,20.40
2018-04-28T11:55:17.385Z,20.40
2018-04-28T11:57:45.585Z,18.60
2018-04-28T12:00:13.038Z,18.60
2018-04-28T12:02:41.290Z,18.70
2018-04-28T12:05:08.744Z,18.90
2018-04-28T12:07:36.114Z,20.70
2018-04-28T12:10:03.953Z,20.60
2018-04-28T12:12:31.462Z,19.50
2018-04-28T12:14:58.825Z,19.60
2018-04-28T12:17:26.258Z,21.10
2018-04-28T12:19:53.708Z,21.50
2018-04-28T12:22:21.947Z,21.10
2018-04-28T12:24:49.382Z,20.50
2018-04-28T12:27:16.817Z,20.50
2018-04-28T12:29:44.376Z,21.40
2018-04-28T12:32:11.709Z,20.60
2018-04-28T12:34:39.185Z,19.50
2018-04-28T12:37:06.614Z,19.90
2018-04-28T12:39:34.805Z,21.00
2018-04-28T12:42:02.683Z,20.90
2018-04-28T12:44:30.864Z,21.60
2018-04-28T12:46:58.296Z,21.90
2018-04-28T12:49:25.740Z,21.70
2018-04-28T12:51:53.193Z,21.50
2018-04-28T12:54:21.392Z,22.70
2018-04-28T12:56:48.846Z,22.30
2018-04-28T12:59:16.281Z,20.70
2018-04-28T13:01:43.728Z,19.50
2018-04-28T13:04:11.174Z,19.90
2018-04-28T13:06:38.612Z,19.80
2018-04-28T13:09:06.109Z,20.30
2018-04-28T13:11:35.061Z,20.20
2018-04-28T13:14:02.494Z,19.80
2018-04-28T13:16:30.717Z,20.10
2018-04-28T13:18:58.540Z,20.60
2018-04-28T13:21:25.989Z,20.90
2018-04-28T13:23:53.420Z,21.00
2018-04-28T13:26:20.861Z,20.20
2018-04-28T13:28:48.285Z,20.10
2018-04-28T13:31:16.125Z,20.50
2018-04-28T13:33:43.956Z,21.50
2018-04-28T13:36:11.403Z,22.00
2018-04-28T13:38:38.836Z,21.10
2018-04-28T13:41:07.108Z,19.60
2018-04-28T13:43:34.468Z,19.90
2018-04-28T13:46:02.313Z,19.70
2018-04-28T13:48:29.748Z,20.00
2018-04-28T13:50:57.203Z,20.00
2018-04-28T13:55:59.444Z,19.60
2018-04-28T13:58:26.825Z,19.90
2018-04-28T14:00:54.267Z,19.80
2018-04-28T14:03:22.473Z,20.30
2018-04-28T14:05:49.933Z,20.20
2018-04-28T14:08:17.385Z,19.60
2018-04-28T14:10:44.824Z,20.50
2018-04-28T14:13:13.033Z,20.30
2018-04-28T14:15:40.470Z,20.40
2018-04-28T14:18:07.916Z,20.10
2018-04-28T14:20:35.351Z,20.10
2018-04-28T14:23:02.795Z,19.60
2018-04-28T14:25:30.233Z,19.90
2018-04-28T14:27:57.676Z,21.20
2018-04-28T14:30:25.107Z,22.00
2018-04-28T14:32:52.549Z,22.60
2018-04-28T14:35:20.744Z,23.00
2018-04-28T14:37:48.962Z,22.00
2018-04-28T14:40:16.794Z,22.90
2018-04-28T14:42:44.246Z,22.80
2018-04-28T14:45:12.073Z,22.20
2018-04-28T14:47:39.522Z,21.60
2018-04-28T14:50:07.723Z,21.80
2018-04-28T14:52:35.558Z,21.70
2018-04-28T14:55:02.982Z,20.30
2018-04-28T14:57:30.826Z,19.70
2018-04-28T14:59:59.030Z,19.60
2018-04-28T15:02:26.461Z,19.20
2018-04-28T15:04:54.660Z,19.60
2018-04-28T15:07:22.497Z,19.60
2018-04-28T15:09:50.074Z,19.90
2018-04-28T15:12:17.377Z,19.80
2018-04-28T15:14:44.831Z,19.70
2018-04-28T15:17:12.675Z,20.00
2018-04-28T15:19:40.887Z,19.60
2018-04-28T15:22:08.343Z,19.50
2018-04-28T15:24:35.783Z,19.40
2018-04-28T15:27:03.225Z,19.20
2018-04-28T15:29:30.678Z,19.20
2018-04-28T15:31:58.894Z,19.10
2018-04-28T15:34:26.350Z,19.00
2018-04-28T15:36:53.785Z,19.10
2018-04-28T15:39:21.234Z,18.70
2018-04-28T15:41:48.678Z,18.60
2018-04-28T15:44:16.105Z,18.60
2018-04-28T15:46:43.545Z,18.70
2018-04-28T15:49:11.378Z,18.90
2018-04-28T15:51:38.824Z,18.80
2018-04-28T15:54:06.257Z,18.60
2018-04-28T15:56:34.816Z,18.40
2018-04-28T15:59:02.253Z,18.30
2018-04-28T16:01:29.699Z,18.40
2018-04-28T16:03:57.905Z,18.50
2018-04-28T16:06:25.349Z,18.60
2018-04-28T16:08:53.580Z,18.40
2018-04-28T16:11:21.026Z,18.50
2018-04-28T16:13:48.452Z,18.40
2018-04-28T16:16:15.891Z,18.40
2018-04-28T16:18:43.718Z,18.30
2018-04-28T16:21:11.570Z,18.10
2018-04-28T16:23:38.997Z,17.90
2018-04-28T16:26:06.868Z,17.80
2018-04-28T16:28:34.293Z,18.00
2018-04-28T16:31:01.774Z,17.80
2018-04-28T16:33:29.594Z,18.00
2018-04-28T16:35:57.060Z,18.00
2018-04-28T16:38:24.496Z,17.80
2018-04-28T16:40:52.693Z,17.90
2018-04-28T16:43:20.133Z,17.90
2018-04-28T16:45:48.350Z,17.70
2018-04-28T16:48:15.819Z,17.70
2018-04-28T16:50:43.320Z,17.70
2018-04-28T16:53:11.482Z,17.90
2018-04-28T16:55:39.304Z,17.80
2018-04-28T16:58:06.748Z,17.70
2018-04-28T17:00:34.197Z,17.80
2018-04-28T17:03:01.638Z,17.40
2018-04-28T17:05:29.838Z,17.50
2018-04-28T17:07:57.283Z,17.40
2018-04-28T17:10:25.485Z,17.30
2018-04-28T17:12:53.693Z,17.40
2018-04-28T17:15:21.141Z,17.30
2018-04-28T17:17:53.813Z,17.10
2018-04-28T17:20:21.664Z,17.10
2018-04-28T17:22:49.101Z,17.00
2018-04-28T17:25:16.533Z,16.90
2018-04-28T17:27:44.749Z,16.80
2018-04-28T17:30:12.193Z,16.70
2018-04-28T17:32:40.041Z,16.70
2018-04-28T17:35:08.249Z,16.70
2018-04-28T17:37:35.717Z,16.70
2018-04-28T17:40:03.913Z,16.60
2018-04-28T17:42:31.743Z,16.50
2018-04-28T17:44:59.178Z,16.40
2018-04-28T17:47:26.632Z,16.30
2018-04-28T17:49:54.064Z,16.30
2018-04-28T17:52:22.269Z,16.30
2018-04-28T17:54:49.711Z,16.30
2018-04-28T17:57:17.549Z,16.20
2018-04-28T17:59:44.985Z,16.20
2018-04-28T18:02:12.429Z,16.40
2018-04-28T18:04:40.652Z,16.50
2018-04-28T18:07:08.088Z,16.50
2018-04-28T18:09:36.295Z,16.60
2018-04-28T18:12:03.733Z,16.60
2018-04-28T18:14:31.962Z,16.60
2018-04-28T18:17:00.137Z,16.60
2018-04-28T18:19:27.572Z,16.60
2018-04-28T18:21:55.432Z,16.50
2018-04-28T18:24:22.863Z,16.40
2018-04-28T18:26:50.305Z,16.20
2018-04-28T18:29:17.741Z,16.10
2018-04-28T18:31:45.572Z,16.00
2018-04-28T18:34:13.016Z,16.00
2018-04-28T18:36:41.313Z,16.50
2018-04-28T18:39:09.144Z,15.80
2018-04-28T18:41:36.586Z,15.70
2018-04-28T18:44:04.026Z,15.50
2018-04-28T18:46:31.513Z,15.30
2018-04-28T18:48:59.704Z,15.20
2018-04-28T18:51:27.139Z,15.00
2018-04-28T18:53:54.974Z,15.00
2018-04-28T18:56:22.420Z,14.70
2018-04-28T18:58:50.670Z,14.50
2018-04-28T19:01:18.138Z,14.40
2018-04-28T19:03:45.952Z,14.10
2018-04-28T19:06:13.404Z,14.10
2018-04-28T19:08:40.854Z,14.00
2018-04-28T19:11:08.305Z,14.00
2018-04-28T19:13:36.145Z,14.20
2018-04-28T19:16:03.604Z,14.40
2018-04-28T19:18:31.037Z,14.40
2018-04-28T19:20:58.552Z,14.50
2018-04-28T19:23:26.664Z,15.00
2018-04-28T19:25:54.508Z,14.50
2018-04-28T19:28:22.040Z,14.60
2018-04-28T19:30:49.479Z,14.50
2018-04-28T19:33:17.691Z,14.40
2018-04-28T19:35:45.140Z,14.40
2018-04-28T19:38:13.366Z,14.20
2018-04-28T19:40:40.801Z,14.00
2018-04-28T19:43:08.239Z,14.00
2018-04-28T19:45:35.677Z,14.00
2018-04-28T19:48:03.129Z,14.10
2018-04-28T19:50:31.332Z,14.20
2018-04-28T19:52:58.789Z,14.20
2018-04-28T19:55:26.236Z,14.10
2018-04-28T19:57:55.189Z,14.30
2018-04-28T20:00:23.043Z,14.30
2018-04-28T20:02:52.027Z,14.30
2018-04-28T20:05:19.486Z,14.30
2018-04-28T20:07:47.696Z,14.40
2018-04-28T20:10:15.152Z,14.30
2018-04-28T20:12:42.609Z,14.30
2018-04-28T20:15:10.045Z,14.30
2018-04-28T20:17:38.272Z,14.30
2018-04-28T20:20:06.116Z,14.20
2018-04-28T20:25:42.901Z,14.30
2018-04-28T20:28:10.737Z,14.20
2018-04-28T20:30:38.559Z,14.20
2018-04-28T20:33:05.996Z,14.20
2018-04-28T20:35:33.448Z,14.20
2018-04-28T20:38:00.888Z,14.20
2018-04-28T20:40:29.097Z,14.20
2018-04-28T20:42:57.353Z,14.30
2018-04-28T20:45:24.740Z,14.30
2018-04-28T20:47:53.702Z,14.20
2018-04-28T20:50:21.894Z,14.40
2018-04-28T20:52:49.747Z,14.20
2018-04-28T20:55:17.184Z,14.20
2018-04-28T20:57:45.388Z,14.10
2018-04-28T21:00:13.578Z,14.10
2018-04-28T21:02:41.023Z,14.00
2018-04-28T21:05:08.465Z,14.00
2018-04-28T21:07:36.678Z,14.00
2018-04-28T21:10:04.132Z,14.00
2018-04-28T21:12:31.569Z,14.00
2018-04-28T21:14:59.001Z,13.90
2018-04-28T21:17:26.455Z,14.00
2018-04-28T21:19:53.888Z,13.90
2018-04-28T21:22:22.466Z,13.90
2018-04-28T21:24:49.913Z,13.80
2018-04-28T21:27:17.352Z,13.80
2018-04-28T21:29:45.559Z,13.70
2018-04-28T21:32:13.396Z,13.70
2018-04-28T21:34:41.217Z,13.60
2018-04-28T21:37:08.661Z,13.50
2018-04-28T21:39:36.484Z,13.50
2018-04-28T21:42:04.715Z,13.50
2018-04-28T21:44:32.153Z,13.30
2018-04-28T21:47:00.356Z,13.20
2018-04-28T21:49:27.792Z,13.10
2018-04-28T21:51:55.239Z,13.00
2018-04-28T21:54:23.805Z,12.80
2018-04-28T21:56:51.249Z,12.70
2018-04-28T21:59:18.684Z,12.50
2018-04-28T22:01:46.203Z,12.30
2018-04-28T22:04:14.022Z,12.40
2018-04-28T22:06:41.470Z,12.30
2018-04-28T22:09:08.916Z,12.20
2018-04-28T22:11:36.375Z,12.00
2018-04-28T22:14:03.796Z,12.20
2018-04-28T22:16:31.630Z,12.30
2018-04-28T22:18:59.840Z,12.30
2018-04-28T22:21:28.049Z,12.10
2018-04-28T22:23:55.484Z,12.10
2018-04-28T22:26:23.329Z,12.20
2018-04-28T22:28:51.536Z,12.00
2018-04-28T22:31:18.993Z,12.10
2018-04-28T22:33:46.425Z,12.00
2018-04-28T22:36:13.884Z,11.90
2018-04-28T22:38:41.316Z,11.90
2018-04-28T22:41:09.902Z,11.80
2018-04-28T22:43:37.344Z,11.70
2018-04-28T22:46:04.777Z,11.80
2018-04-28T22:48:32.209Z,11.80
2018-04-28T22:51:00.800Z,11.80
2018-04-28T22:53:28.249Z,11.80
2018-04-28T22:55:56.476Z,11.70
2018-04-28T22:58:23.901Z,11.70
2018-04-28T23:00:52.124Z,11.80
2018-04-28T23:03:19.973Z,11.70
2018-04-28T23:05:47.406Z,11.80
2018-04-28T23:08:15.627Z,11.80
2018-04-28T23:10:43.051Z,11.80
2018-04-28T23:13:11.630Z,11.80
2018-04-28T23:15:39.061Z,11.80
2018-04-28T23:18:07.450Z,11.70
2018-04-28T23:20:34.882Z,11.70
2018-04-28T23:23:03.083Z,11.70
2018-04-28T23:25:30.516Z,11.60
2018-04-28T23:27:58.730Z,11.60
2018-04-28T23:30:26.948Z,11.60
2018-04-28T23:32:55.247Z,11.60
2018-04-28T23:35:22.694Z,11.50
2018-04-28T23:37:51.711Z,11.50
2018-04-28T23:40:19.949Z,11.40
2018-04-28T23:42:48.892Z,11.40
2018-04-28T23:45:16.814Z,11.50
2018-04-28T23:47:45.781Z,11.50
2018-04-28T23:50:13.200Z,11.40
2018-04-28T23:52:41.429Z,11.30
2018-04-28T23:57:38.509Z,11.50
